Time;durP1;ratioP1;P1;durP2;ratioP2;P2;SDS_P1;SDS_P2;PMS_P1;PMS_P2;Temp;Humidity;BMP_temperature;BMP_pressure;BME280_temperature;BME280_humidity;BME280_pressure;Samples;Min_cycle;Max_cycle;Signal;HPM_P1;HPM_P2
2021/06/11 00:01:00;;;;;;;2.63;1.85;;;19.70;70.10;;;;;;2082250;28;20076;-83
2021/06/11 00:02:01;;;;;;;2.30;1.70;;;19.70;70.10;;;;;;2081880;28;20573;-83
2021/06/11 00:03:02;;;;;;;2.10;1.70;;;19.70;70.10;;;;;;2082088;28;20030;-83
2021/06/11 00:04:03;;;;;;;2.28;1.70;;;19.70;70.20;;;;;;2081790;28;20128;-83
2021/06/11 00:05:05;;;;;;;1.73;1.52;;;19.70;70.30;;;;;;2080196;28;20025;-83
2021/06/11 00:06:06;;;;;;;2.38;1.70;;;19.70;70.30;;;;;;2078435;28;20076;-83
2021/06/11 00:07:07;;;;;;;2.83;1.70;;;19.70;70.30;;;;;;2086216;28;20033;-83
2021/06/11 00:08:08;;;;;;;3.78;1.77;;;19.60;70.30;;;;;;2084237;28;20036;-83
2021/06/11 00:09:12;;;;;;;2.22;1.52;;;19.60;70.40;;;;;;2074172;28;20458;-83
2021/06/11 00:10:14;;;;;;;3.42;1.77;;;19.60;70.50;;;;;;2079679;28;20034;-83
2021/06/11 00:11:14;;;;;;;2.58;1.92;;;19.50;70.60;;;;;;2080924;28;20396;-83
2021/06/11 00:12:15;;;;;;;2.30;1.55;;;19.50;70.70;;;;;;2076270;28;20049;-83
2021/06/11 00:13:16;;;;;;;2.25;1.70;;;19.50;70.90;;;;;;2079140;28;20041;-83
2021/06/11 00:14:17;;;;;;;2.50;1.73;;;19.50;71.00;;;;;;2084170;28;20033;-84
2021/06/11 00:15:18;;;;;;;1.90;1.58;;;19.50;71.10;;;;;;2080021;28;20063;-83
2021/06/11 00:16:18;;;;;;;2.00;1.50;;;19.50;71.10;;;;;;2080227;28;20451;-82
2021/06/11 00:17:19;;;;;;;2.50;1.77;;;19.50;71.10;;;;;;2096755;28;20085;-81
2021/06/11 00:18:20;;;;;;;2.13;1.50;;;19.50;71.20;;;;;;2101169;28;20057;-82
2021/06/11 00:19:20;;;;;;;3.05;1.98;;;19.40;71.10;;;;;;2094421;28;20037;-83
2021/06/11 00:20:22;;;;;;;1.90;1.50;;;19.40;71.30;;;;;;2091933;28;20033;-82
2021/06/11 00:21:23;;;;;;;3.08;1.90;;;19.40;71.30;;;;;;2094183;28;20025;-83
2021/06/11 00:22:23;;;;;;;2.63;1.73;;;19.40;71.40;;;;;;2092060;28;20029;-85
2021/06/11 00:23:24;;;;;;;2.33;1.70;;;19.40;71.50;;;;;;2091649;28;20021;-83
2021/06/11 00:24:25;;;;;;;2.35;1.80;;;19.40;71.60;;;;;;2082356;28;20029;-83
2021/06/11 00:25:26;;;;;;;2.67;1.73;;;19.40;71.70;;;;;;2081401;28;20041;-83
2021/06/11 00:26:26;;;;;;;2.58;1.98;;;19.40;71.70;;;;;;2078727;28;20045;-82
2021/06/11 00:27:27;;;;;;;2.55;1.80;;;19.40;71.70;;;;;;2081977;28;20038;-83
2021/06/11 00:28:28;;;;;;;3.10;1.85;;;19.30;71.70;;;;;;2073774;28;20038;-84
2021/06/11 00:29:28;;;;;;;2.95;1.75;;;19.40;71.70;;;;;;2082112;28;20078;-84
2021/06/11 00:30:30;;;;;;;2.70;2.00;;;19.30;71.70;;;;;;2088043;28;20081;-83
2021/06/11 00:31:31;;;;;;;2.92;1.73;;;19.30;71.80;;;;;;2087615;28;20057;-83
2021/06/11 00:32:31;;;;;;;2.70;1.60;;;19.30;71.80;;;;;;2084176;28;20028;-83
2021/06/11 00:33:32;;;;;;;2.17;1.70;;;19.30;72.00;;;;;;2081750;28;20029;-83
2021/06/11 00:34:33;;;;;;;2.50;1.63;;;19.30;72.10;;;;;;2071076;28;20068;-83
2021/06/11 00:35:34;;;;;;;2.67;1.65;;;19.30;72.10;;;;;;2078397;28;20412;-83
2021/06/11 00:36:34;;;;;;;2.55;1.67;;;19.30;72.10;;;;;;2080466;28;20036;-82
2021/06/11 00:37:35;;;;;;;2.63;1.90;;;19.30;72.10;;;;;;2071329;28;20021;-83
2021/06/11 00:38:36;;;;;;;2.80;1.80;;;19.30;72.10;;;;;;2075930;28;20500;-83
2021/06/11 00:39:36;;;;;;;2.13;1.60;;;19.30;72.20;;;;;;2081407;28;20493;-83
2021/06/11 00:40:39;;;;;;;2.83;2.08;;;19.30;72.20;;;;;;2073090;28;20103;-83
2021/06/11 00:41:39;;;;;;;2.42;1.95;;;19.30;72.30;;;;;;2067264;28;20018;-83
2021/06/11 00:42:40;;;;;;;2.50;1.73;;;19.20;72.30;;;;;;2084627;28;20033;-82
2021/06/11 00:43:41;;;;;;;2.95;1.83;;;19.20;72.40;;;;;;2085710;28;20030;-82
2021/06/11 00:44:41;;;;;;;2.50;1.80;;;19.20;72.50;;;;;;2085397;28;20030;-83
2021/06/11 00:45:44;;;;;;;2.78;1.70;;;19.20;72.50;;;;;;2086331;28;20033;-83
2021/06/11 00:46:44;;;;;;;2.55;1.85;;;19.20;72.50;;;;;;2091217;28;20088;-83
2021/06/11 00:47:45;;;;;;;2.75;1.90;;;19.20;72.60;;;;;;2098999;28;20037;-82
2021/06/11 00:48:46;;;;;;;2.55;1.75;;;19.20;72.60;;;;;;2093898;28;20021;-82
2021/06/11 00:49:48;;;;;;;3.78;2.05;;;19.20;72.60;;;;;;2093466;28;20049;-83
2021/06/11 00:50:49;;;;;;;2.38;1.83;;;19.20;72.60;;;;;;2078442;28;20022;-82
2021/06/11 00:51:50;;;;;;;2.92;1.98;;;19.20;72.60;;;;;;2077875;28;20543;-84
2021/06/11 00:52:54;;;;;;;2.85;2.00;;;19.30;72.70;;;;;;2087139;28;20020;-83
2021/06/11 00:53:55;;;;;;;3.03;2.08;;;19.30;72.70;;;;;;2090082;28;20071;-83
2021/06/11 00:54:56;;;;;;;3.10;2.10;;;19.30;72.70;;;;;;2089663;28;20033;-83
2021/06/11 00:55:57;;;;;;;2.72;1.98;;;19.30;72.70;;;;;;2080017;28;20423;-83
2021/06/11 00:56:58;;;;;;;2.67;2.00;;;19.30;72.70;;;;;;2076770;28;20021;-83
2021/06/11 00:57:58;;;;;;;2.90;2.00;;;19.30;72.70;;;;;;2083931;28;20025;-82
2021/06/11 00:58:59;;;;;;;3.65;2.25;;;19.30;72.80;;;;;;2088140;28;20033;-83
2021/06/11 01:00:00;;;;;;;3.28;2.20;;;19.30;72.80;;;;;;2085197;28;20403;-83
2021/06/11 01:01:01;;;;;;;2.70;2.00;;;19.20;72.80;;;;;;2093413;28;20043;-83
2021/06/11 01:02:01;;;;;;;3.53;1.90;;;19.20;72.90;;;;;;2077703;28;20040;-83
2021/06/11 01:03:03;;;;;;;4.05;2.15;;;19.20;73.10;;;;;;2077560;28;20416;-82
2021/06/11 01:04:03;;;;;;;2.67;2.05;;;19.10;73.10;;;;;;2083261;28;20372;-82
2021/06/11 01:05:05;;;;;;;2.85;1.80;;;19.10;73.20;;;;;;2086231;28;20044;-82
2021/06/11 01:06:06;;;;;;;3.05;2.08;;;19.10;73.30;;;;;;2084489;28;20045;-82
2021/06/11 01:07:07;;;;;;;2.85;2.03;;;19.10;73.40;;;;;;2084631;28;20047;-82
2021/06/11 01:08:10;;;;;;;3.05;2.22;;;19.10;73.40;;;;;;2084286;28;20029;-83
2021/06/11 01:09:11;;;;;;;2.65;2.00;;;19.10;73.40;;;;;;2084223;28;20085;-83
2021/06/11 01:10:13;;;;;;;3.70;2.30;;;19.10;73.50;;;;;;2081509;28;20514;-83
2021/06/11 01:11:15;;;;;;;2.63;1.95;;;19.00;73.50;;;;;;2083440;28;20068;-83
2021/06/11 01:12:16;;;;;;;3.10;2.30;;;19.00;73.50;;;;;;2093151;28;20060;-83
2021/06/11 01:13:18;;;;;;;2.60;2.08;;;19.00;73.60;;;;;;2084639;28;20025;-84
2021/06/11 01:14:19;;;;;;;2.88;2.10;;;19.00;73.60;;;;;;2083834;28;20025;-82
2021/06/11 01:15:21;;;;;;;3.33;2.10;;;19.00;73.60;;;;;;2079631;28;20026;-83
2021/06/11 01:16:22;;;;;;;2.83;2.10;;;19.00;73.60;;;;;;2071599;28;20058;-83
2021/06/11 01:17:23;;;;;;;2.80;2.03;;;19.10;73.70;;;;;;2081351;28;20128;-83
2021/06/11 01:18:24;;;;;;;3.58;2.22;;;19.00;73.60;;;;;;2086004;28;20053;-83
2021/06/11 01:19:38;;;;;;;3.15;2.30;;;19.10;73.70;;;;;;2085613;28;20099;-83
2021/06/11 01:20:38;;;;;;;2.97;2.13;;;19.10;73.70;;;;;;2084908;28;20033;-83
2021/06/11 01:21:49;;;;;;;2.75;2.10;;;19.10;73.70;;;;;;2077907;28;20510;-83
2021/06/11 01:23:04;;;;;;;2.80;2.10;;;19.10;73.70;;;;;;2076139;28;20076;-83
2021/06/11 01:24:18;;;;;;;2.92;2.15;;;19.00;73.70;;;;;;2087817;28;20024;-83
2021/06/11 01:25:59;;;;;;;2.95;2.20;;;19.00;73.80;;;;;;2091206;28;20021;-83
2021/06/11 01:27:00;;;;;;;2.72;2.03;;;19.00;73.70;;;;;;2082285;28;20038;-83
2021/06/11 01:28:03;;;;;;;2.63;2.15;;;18.90;73.70;;;;;;2091938;28;20543;-84
2021/06/11 01:29:10;;;;;;;3.60;2.28;;;18.90;73.90;;;;;;2074463;28;20500;-83
2021/06/11 01:30:19;;;;;;;3.30;2.40;;;18.90;74.00;;;;;;2072600;28;20026;-83
2021/06/11 01:31:20;;;;;;;3.05;2.10;;;18.90;74.00;;;;;;2073377;28;20084;-83
2021/06/11 01:32:21;;;;;;;3.42;2.22;;;18.90;74.10;;;;;;2084407;28;20116;-83
2021/06/11 01:33:26;;;;;;;6.20;2.75;;;18.90;74.10;;;;;;2075401;28;20060;-83
2021/06/11 01:34:32;;;;;;;2.85;2.05;;;18.90;74.20;;;;;;2081114;28;20107;-83
2021/06/11 01:35:47;;;;;;;3.00;2.30;;;18.80;74.20;;;;;;2080978;28;20041;-82
2021/06/11 01:36:59;;;;;;;3.30;2.20;;;18.80;74.30;;;;;;2079758;28;20395;-83
2021/06/11 01:38:02;;;;;;;2.80;2.20;;;18.80;74.40;;;;;;2082547;28;20074;-83
2021/06/11 01:39:06;;;;;;;2.80;2.00;;;18.80;74.40;;;;;;2082815;28;20029;-83
2021/06/11 01:40:10;;;;;;;4.30;2.42;;;18.80;74.40;;;;;;2084605;28;20044;-82
2021/06/11 01:41:15;;;;;;;3.33;2.33;;;18.80;74.40;;;;;;2071922;28;20034;-83
2021/06/11 01:42:16;;;;;;;2.92;2.35;;;18.80;74.40;;;;;;2081491;28;20070;-83
2021/06/11 01:43:19;;;;;;;3.03;2.30;;;18.80;74.50;;;;;;2075331;28;20100;-83
2021/06/11 01:44:22;;;;;;;3.10;2.30;;;18.80;74.60;;;;;;2077331;28;20492;-83
2021/06/11 01:45:23;;;;;;;2.85;2.20;;;18.80;74.70;;;;;;2086198;28;20480;-83
2021/06/11 01:46:27;;;;;;;3.05;2.15;;;18.80;74.70;;;;;;2081472;28;20018;-83
2021/06/11 01:47:29;;;;;;;3.65;2.40;;;18.80;75.50;;;;;;2084557;28;20025;-82
2021/06/11 01:48:30;;;;;;;4.05;2.60;;;18.70;74.80;;;;;;2085624;28;20550;-83
2021/06/11 01:49:31;;;;;;;3.53;1.88;;;18.80;74.90;;;;;;2083378;28;20026;-83
2021/06/11 01:50:33;;;;;;;3.13;2.30;;;18.80;74.90;;;;;;2084368;28;20056;-83
2021/06/11 01:51:37;;;;;;;3.05;2.22;;;18.80;74.90;;;;;;2076758;28;20021;-82
2021/06/11 01:52:39;;;;;;;3.28;2.30;;;18.80;74.90;;;;;;2076080;28;20512;-83
2021/06/11 01:53:42;;;;;;;2.80;2.17;;;18.70;75.40;;;;;;2070046;28;20072;-83
2021/06/11 01:54:44;;;;;;;2.90;2.13;;;18.70;74.90;;;;;;2077687;28;20164;-83
2021/06/11 01:55:47;;;;;;;3.20;2.33;;;18.70;74.90;;;;;;2080150;28;20561;-83
2021/06/11 01:56:48;;;;;;;3.78;2.53;;;18.70;75.00;;;;;;2081012;28;20044;-83
2021/06/11 01:57:49;;;;;;;3.13;2.35;;;18.70;75.00;;;;;;2080957;28;20029;-83
2021/06/11 01:58:50;;;;;;;4.25;2.42;;;18.70;75.00;;;;;;2063561;28;20034;-83
2021/06/11 01:59:52;;;;;;;3.47;2.47;;;18.70;75.70;;;;;;2072418;28;20025;-83
2021/06/11 02:00:54;;;;;;;3.15;2.20;;;18.70;75.10;;;;;;2079284;28;20729;-82
2021/06/11 02:01:56;;;;;;;3.33;2.30;;;18.70;75.10;;;;;;2079227;28;20025;-83
2021/06/11 02:02:58;;;;;;;3.63;2.50;;;18.70;75.10;;;;;;2075522;28;20046;-83
2021/06/11 02:04:00;;;;;;;3.58;2.50;;;18.70;75.80;;;;;;2077715;28;20028;-83
2021/06/11 02:05:03;;;;;;;3.28;2.40;;;18.70;75.20;;;;;;2085945;28;20138;-83
2021/06/11 02:06:06;;;;;;;3.15;2.42;;;18.60;75.30;;;;;;2083077;28;20013;-83
2021/06/11 02:07:08;;;;;;;3.05;2.30;;;18.60;75.40;;;;;;2082844;28;20040;-83
2021/06/11 02:08:09;;;;;;;3.25;2.35;;;18.60;75.50;;;;;;2077083;28;20666;-83
2021/06/11 02:09:11;;;;;;;3.35;2.70;;;18.60;75.60;;;;;;2077394;28;20045;-83
2021/06/11 02:10:17;;;;;;;3.50;2.60;;;18.60;76.30;;;;;;2078012;28;20033;-83
2021/06/11 02:11:18;;;;;;;3.78;2.50;;;18.60;75.70;;;;;;2079468;28;20022;-83
2021/06/11 02:12:19;;;;;;;3.47;2.50;;;18.50;75.70;;;;;;2084621;28;20025;-83
2021/06/11 02:13:20;;;;;;;3.67;2.42;;;18.50;75.80;;;;;;2069231;28;20483;-83
2021/06/11 02:14:22;;;;;;;3.78;2.63;;;18.50;75.80;;;;;;2070460;28;20030;-83
2021/06/11 02:15:23;;;;;;;4.28;2.75;;;18.50;75.80;;;;;;2085226;28;20075;-83
2021/06/11 02:16:28;;;;;;;4.13;2.80;;;18.50;75.80;;;;;;2091436;28;20024;-83
2021/06/11 02:17:29;;;;;;;3.60;2.55;;;18.50;75.80;;;;;;2088012;28;20025;-83
2021/06/11 02:18:31;;;;;;;3.80;2.88;;;18.60;75.90;;;;;;2088700;28;20465;-83
2021/06/11 02:19:35;;;;;;;3.47;2.60;;;18.50;75.90;;;;;;2081856;28;20028;-83
2021/06/11 02:20:35;;;;;;;4.03;2.80;;;18.50;76.10;;;;;;2081728;28;20022;-83
2021/06/11 02:21:38;;;;;;;3.80;2.92;;;18.50;76.10;;;;;;2078231;28;20033;-83
2021/06/11 02:22:40;;;;;;;4.47;2.80;;;18.50;76.20;;;;;;2081019;28;20018;-82
2021/06/11 02:23:41;;;;;;;4.55;2.88;;;18.50;76.20;;;;;;2082968;28;20034;-83
2021/06/11 02:24:42;;;;;;;4.03;3.10;;;18.50;76.20;;;;;;2083374;28;20407;-83
2021/06/11 02:25:43;;;;;;;3.97;2.88;;;18.50;76.30;;;;;;2083560;28;20460;-83
2021/06/11 02:26:44;;;;;;;3.78;2.80;;;18.50;76.30;;;;;;2088240;28;20049;-83
2021/06/11 02:27:46;;;;;;;3.95;2.90;;;18.50;76.30;;;;;;2082757;28;20033;-82
2021/06/11 02:28:50;;;;;;;3.67;2.70;;;18.40;76.40;;;;;;2084270;28;20473;-83
2021/06/11 02:29:50;;;;;;;3.97;3.03;;;18.40;76.40;;;;;;2093578;28;20545;-83
2021/06/11 02:30:51;;;;;;;4.93;3.00;;;18.40;76.40;;;;;;2092271;28;20029;-83
2021/06/11 02:31:52;;;;;;;3.80;2.92;;;18.40;76.50;;;;;;2087711;28;20036;-84
2021/06/11 02:32:53;;;;;;;4.88;3.03;;;18.50;76.50;;;;;;2090655;28;20029;-83
2021/06/11 02:33:53;;;;;;;4.15;2.97;;;18.40;76.40;;;;;;2099050;28;20513;-83
2021/06/11 02:34:54;;;;;;;4.15;3.00;;;18.40;76.40;;;;;;2093100;28;20416;-83
2021/06/11 02:35:55;;;;;;;4.30;2.97;;;18.50;76.50;;;;;;2094150;28;20518;-83
2021/06/11 02:36:57;;;;;;;4.35;3.15;;;18.40;76.40;;;;;;2083072;28;20116;-83
2021/06/11 02:37:58;;;;;;;3.83;2.75;;;18.50;76.50;;;;;;2085286;28;20049;-83
2021/06/11 02:38:59;;;;;;;3.80;2.63;;;18.50;76.40;;;;;;2079760;28;20040;-83
2021/06/11 02:40:00;;;;;;;3.55;2.60;;;18.50;77.10;;;;;;2088977;28;20032;-83
2021/06/11 02:41:02;;;;;;;3.47;2.75;;;18.40;76.40;;;;;;2092009;28;20491;-84
2021/06/11 02:42:07;;;;;;;3.15;2.55;;;18.40;76.40;;;;;;2092984;28;20536;-83
2021/06/11 02:43:20;;;;;;;4.15;2.72;;;18.40;76.40;;;;;;2090091;28;20025;-83
2021/06/11 02:44:25;;;;;;;4.88;3.00;;;18.40;76.40;;;;;;2083416;28;20021;-83
2021/06/11 02:45:29;;;;;;;4.07;2.92;;;18.40;76.50;;;;;;2092002;28;20082;-83
2021/06/11 02:46:36;;;;;;;5.32;3.28;;;18.40;76.50;;;;;;2094359;28;20376;-84
2021/06/11 02:47:43;;;;;;;4.53;3.17;;;18.40;76.50;;;;;;2084635;28;20447;-83
2021/06/11 02:48:45;;;;;;;5.50;3.30;;;18.40;76.50;;;;;;2091630;28;20106;-83
2021/06/11 02:49:58;;;;;;;5.15;3.70;;;18.40;76.60;;;;;;2094970;28;20382;-83
2021/06/11 02:51:02;;;;;;;4.35;3.25;;;18.40;76.60;;;;;;2090336;28;20036;-83
2021/06/11 02:52:06;;;;;;;5.15;3.45;;;18.40;76.60;;;;;;2094611;28;20104;-83
2021/06/11 02:53:09;;;;;;;5.10;3.50;;;18.40;76.60;;;;;;2091048;28;20035;-83
2021/06/11 02:54:22;;;;;;;4.60;3.53;;;18.40;76.60;;;;;;2090745;28;20134;-83
2021/06/11 02:55:26;;;;;;;5.75;3.90;;;18.40;76.60;;;;;;2089342;28;20051;-83
2021/06/11 02:56:41;;;;;;;5.18;3.67;;;18.40;76.60;;;;;;2092642;28;20375;-83
2021/06/11 02:57:56;;;;;;;5.50;3.92;;;18.40;76.60;;;;;;2093839;28;20016;-83
2021/06/11 02:59:07;;;;;;;5.10;3.58;;;18.40;76.60;;;;;;2095055;28;20525;-83
2021/06/11 03:00:09;;;;;;;4.20;3.25;;;18.30;76.60;;;;;;2090479;28;20025;-83
2021/06/11 03:01:12;;;;;;;5.65;3.55;;;18.30;76.60;;;;;;2083675;28;20459;-83
2021/06/11 03:02:22;;;;;;;5.15;3.33;;;18.30;76.70;;;;;;2079630;28;20548;-83
2021/06/11 03:03:27;;;;;;;7.18;3.92;;;18.30;76.70;;;;;;2086252;28;20112;-83
2021/06/11 03:04:29;;;;;;;5.20;3.60;;;18.30;76.80;;;;;;2089912;28;20397;-84
2021/06/11 03:05:31;;;;;;;4.35;3.33;;;18.30;76.80;;;;;;2094382;28;20403;-83
2021/06/11 03:06:32;;;;;;;5.03;3.60;;;18.30;76.80;;;;;;2091233;28;20491;-84
2021/06/11 03:07:36;;;;;;;5.05;3.70;;;18.30;76.80;;;;;;2088537;28;20064;-83
2021/06/11 03:08:40;;;;;;;4.85;3.70;;;18.30;76.90;;;;;;2087145;28;20021;-83
2021/06/11 03:09:42;;;;;;;5.07;3.97;;;18.30;76.90;;;;;;2092306;28;20091;-84
2021/06/11 03:10:49;;;;;;;6.28;4.00;;;18.20;76.80;;;;;;2082815;28;20028;-83
2021/06/11 03:11:53;;;;;;;5.78;4.15;;;18.30;77.00;;;;;;2093865;28;20017;-84
2021/06/11 03:12:56;;;;;;;6.43;4.38;;;18.20;77.60;;;;;;2092998;28;20127;-83
2021/06/11 03:13:58;;;;;;;5.90;4.25;;;18.20;76.90;;;;;;2092747;28;20017;-83
2021/06/11 03:14:59;;;;;;;5.85;4.45;;;18.20;77.00;;;;;;2087418;28;20780;-83
2021/06/11 03:16:00;;;;;;;5.15;3.97;;;18.20;77.00;;;;;;2079758;28;20037;-83
2021/06/11 03:17:03;;;;;;;5.55;4.07;;;18.20;77.00;;;;;;2080708;28;20530;-83
2021/06/11 03:18:08;;;;;;;6.40;4.03;;;18.20;77.00;;;;;;2082463;28;20411;-83
2021/06/11 03:19:11;;;;;;;5.50;4.38;;;18.10;77.00;;;;;;2090373;28;20025;-83
2021/06/11 03:20:15;;;;;;;5.60;4.05;;;18.20;77.10;;;;;;2096456;28;20031;-84
2021/06/11 03:21:31;;;;;;;6.15;4.57;;;18.10;77.00;;;;;;2090131;28;20024;-84
2021/06/11 03:22:37;;;;;;;5.60;4.20;;;18.20;77.10;;;;;;2090176;28;20013;-83
2021/06/11 03:23:49;;;;;;;6.05;4.22;;;18.20;77.10;;;;;;2095208;28;20119;-84
2021/06/11 03:25:10;;;;;;;5.65;4.00;;;18.10;77.10;;;;;;2090742;28;20033;-83
2021/06/11 03:26:14;;;;;;;6.40;4.13;;;18.20;77.20;;;;;;2090186;28;20072;-83
2021/06/11 03:27:23;;;;;;;5.40;4.07;;;18.10;77.10;;;;;;2083851;28;20033;-83
2021/06/11 03:28:36;;;;;;;5.25;3.83;;;18.10;77.10;;;;;;2083972;28;20032;-83
2021/06/11 03:29:41;;;;;;;6.07;4.57;;;18.10;77.20;;;;;;2092056;28;20480;-83
2021/06/11 03:30:47;;;;;;;5.45;4.10;;;18.10;77.80;;;;;;2092118;28;20371;-83
2021/06/11 03:31:56;;;;;;;5.65;4.40;;;18.10;77.20;;;;;;2092478;28;20416;-83
2021/06/11 03:33:11;;;;;;;5.82;4.50;;;18.10;77.20;;;;;;2090148;28;20067;-82
2021/06/11 03:34:24;;;;;;;5.53;4.25;;;18.10;77.20;;;;;;2083904;28;20060;-83
2021/06/11 03:35:34;;;;;;;5.90;4.57;;;18.10;77.30;;;;;;2090160;28;20387;-82
2021/06/11 03:36:40;;;;;;;7.50;4.68;;;18.10;77.30;;;;;;2093464;28;20025;-83
2021/06/11 03:37:55;;;;;;;6.07;4.53;;;18.00;77.20;;;;;;2084136;28;20018;-83
2021/06/11 03:39:03;;;;;;;6.00;4.35;;;18.00;77.30;;;;;;2092131;28;20052;-82
2021/06/11 03:40:09;;;;;;;6.15;4.75;;;18.10;77.40;;;;;;2103625;28;20039;-82
2021/06/11 03:41:13;;;;;;;6.65;4.78;;;18.10;77.50;;;;;;2091483;28;20506;-83
2021/06/11 03:42:14;;;;;;;6.10;4.63;;;18.00;77.50;;;;;;2093903;28;20528;-83
2021/06/11 03:43:15;;;;;;;7.18;5.03;;;18.00;77.50;;;;;;2076850;28;20408;-82
2021/06/11 03:44:17;;;;;;;6.78;4.88;;;18.00;77.50;;;;;;2084766;28;20637;-83
2021/06/11 03:45:19;;;;;;;5.97;4.70;;;18.00;77.60;;;;;;2095335;28;20032;-83
2021/06/11 03:46:20;;;;;;;6.10;4.60;;;18.00;77.60;;;;;;2079833;28;20065;-83
2021/06/11 03:47:24;;;;;;;6.93;4.95;;;18.00;77.70;;;;;;2080847;28;20458;-82
2021/06/11 03:48:27;;;;;;;6.35;4.78;;;18.00;77.80;;;;;;2096529;28;20032;-83
2021/06/11 03:49:29;;;;;;;6.95;5.38;;;18.00;77.80;;;;;;2090174;28;20025;-82
2021/06/11 03:50:31;;;;;;;6.45;5.20;;;18.00;77.80;;;;;;2088668;28;20025;-83
2021/06/11 03:51:33;;;;;;;7.13;5.40;;;18.00;77.90;;;;;;2089646;28;20052;-83
2021/06/11 03:52:39;;;;;;;6.82;5.28;;;18.00;78.00;;;;;;2092349;28;20544;-83
2021/06/11 03:53:41;;;;;;;6.72;5.07;;;17.90;78.00;;;;;;2082449;28;20475;-83
2021/06/11 03:54:45;;;;;;;7.85;5.50;;;17.90;78.10;;;;;;2092241;28;20025;-83
2021/06/11 03:55:53;;;;;;;6.78;5.25;;;17.90;78.20;;;;;;2090647;28;20045;-83
2021/06/11 03:56:55;;;;;;;6.82;5.40;;;17.90;78.30;;;;;;2093825;28;20182;-82
2021/06/11 03:58:07;;;;;;;6.47;5.20;;;17.90;79.00;;;;;;2087118;28;20052;-83
2021/06/11 03:59:11;;;;;;;7.70;5.50;;;17.90;78.60;;;;;;2083204;28;20044;-83
2021/06/11 04:00:13;;;;;;;7.88;5.18;;;17.90;78.50;;;;;;2093550;28;20033;-83
2021/06/11 04:01:24;;;;;;;6.90;5.05;;;17.90;78.50;;;;;;2083846;28;20526;-82
2021/06/11 04:02:24;;;;;;;6.65;5.25;;;17.90;78.50;;;;;;2086127;28;20025;-83
2021/06/11 04:03:25;;;;;;;8.30;5.45;;;17.90;78.50;;;;;;2093364;28;20067;-83
2021/06/11 04:04:26;;;;;;;7.25;5.43;;;17.90;78.50;;;;;;2095127;28;20052;-83
2021/06/11 04:05:27;;;;;;;7.57;5.38;;;17.90;78.60;;;;;;2080603;28;20032;-83
2021/06/11 04:06:39;;;;;;;6.55;5.07;;;17.90;78.60;;;;;;2080085;28;20033;-83
2021/06/11 04:07:58;;;;;;;7.20;5.53;;;17.90;78.60;;;;;;2086676;28;20383;-83
2021/06/11 04:09:08;;;;;;;6.85;5.10;;;17.90;79.10;;;;;;2092569;28;20115;-83
2021/06/11 04:10:18;;;;;;;6.72;4.80;;;17.90;78.40;;;;;;2095538;28;20029;-83
2021/06/11 04:11:26;;;;;;;7.20;5.10;;;17.90;78.50;;;;;;2091662;28;20498;-83
2021/06/11 04:12:36;;;;;;;8.30;5.20;;;18.00;78.50;;;;;;2095370;28;20025;-83
2021/06/11 04:13:56;;;;;;;7.00;5.00;;;17.90;78.40;;;;;;2096362;28;20025;-82
2021/06/11 04:14:57;;;;;;;6.20;4.85;;;18.00;78.40;;;;;;2091588;28;20040;-83
2021/06/11 04:15:58;;;;;;;7.03;5.13;;;18.00;78.40;;;;;;2090458;28;20443;-82
2021/06/11 04:17:01;;;;;;;7.60;4.97;;;18.00;78.40;;;;;;2090017;28;20505;-82
2021/06/11 04:18:05;;;;;;;5.85;4.68;;;18.00;78.30;;;;;;2081347;28;20048;-83
2021/06/11 04:19:10;;;;;;;6.18;4.88;;;18.10;78.30;;;;;;2090192;28;20025;-83
2021/06/11 04:20:26;;;;;;;7.22;4.70;;;18.10;78.30;;;;;;2093717;28;20033;-83
2021/06/11 04:21:32;;;;;;;8.05;5.50;;;18.20;78.20;;;;;;2093396;28;20123;-83
2021/06/11 04:22:35;;;;;;;6.90;5.15;;;18.10;78.10;;;;;;2099549;28;20382;-83
2021/06/11 04:23:39;;;;;;;6.38;4.85;;;18.20;78.10;;;;;;2094737;28;20119;-84
2021/06/11 04:24:45;;;;;;;7.35;4.95;;;18.20;78.00;;;;;;2099071;28;20476;-84
2021/06/11 04:25:47;;;;;;;6.90;5.25;;;18.20;77.90;;;;;;2104640;28;20075;-83
2021/06/11 04:26:50;;;;;;;7.03;5.35;;;18.30;78.00;;;;;;2097586;28;20049;-82
2021/06/11 04:27:53;;;;;;;7.00;5.55;;;18.30;77.90;;;;;;2098110;28;20041;-82
2021/06/11 04:28:58;;;;;;;7.60;5.70;;;18.30;77.90;;;;;;2102319;28;20048;-83
2021/06/11 04:29:59;;;;;;;7.88;5.90;;;18.40;77.90;;;;;;2098402;28;20404;-82
2021/06/11 04:31:00;;;;;;;7.03;5.57;;;18.30;77.80;;;;;;2101105;28;20080;-83
2021/06/11 04:32:01;;;;;;;7.28;5.75;;;18.40;77.80;;;;;;2097506;28;20063;-82
2021/06/11 04:33:21;;;;;;;7.28;5.55;;;18.40;77.80;;;;;;2089087;28;20071;-82
2021/06/11 04:34:24;;;;;;;6.82;5.25;;;18.40;77.80;;;;;;2091405;28;20545;-82
2021/06/11 04:35:26;;;;;;;8.00;5.47;;;18.40;77.70;;;;;;2087624;28;20446;-83
2021/06/11 04:36:28;;;;;;;8.48;5.70;;;18.40;77.70;;;;;;2099902;28;20080;-81
2021/06/11 04:37:28;;;;;;;7.50;5.90;;;18.50;77.70;;;;;;2100040;28;20017;-82
2021/06/11 04:38:35;;;;;;;7.70;5.88;;;18.50;77.70;;;;;;2104598;28;20060;-82
2021/06/11 04:39:36;;;;;;;7.78;5.88;;;18.50;77.70;;;;;;2104163;28;20012;-81
2021/06/11 04:40:37;;;;;;;7.78;6.07;;;18.50;77.60;;;;;;2103963;28;20096;-82
2021/06/11 04:41:37;;;;;;;8.30;5.85;;;18.50;77.60;;;;;;2084144;28;20514;-81
2021/06/11 04:42:38;;;;;;;7.28;5.75;;;18.50;77.60;;;;;;2063723;28;20409;-82
2021/06/11 04:43:39;;;;;;;7.95;5.38;;;18.50;77.60;;;;;;2073935;28;20114;-83
2021/06/11 04:44:40;;;;;;;7.60;5.68;;;18.60;77.60;;;;;;2088498;28;20414;-83
2021/06/11 04:45:40;;;;;;;7.60;5.70;;;18.60;77.60;;;;;;2092284;28;20431;-83
2021/06/11 04:46:41;;;;;;;8.00;5.90;;;18.60;77.50;;;;;;2092934;28;20419;-81
2021/06/11 04:47:43;;;;;;;8.15;5.68;;;18.60;77.50;;;;;;2098340;28;20529;-82
2021/06/11 04:48:43;;;;;;;6.63;5.25;;;18.70;77.50;;;;;;2085586;28;20037;-82
2021/06/11 04:49:44;;;;;;;8.07;6.13;;;18.70;77.50;;;;;;2088669;28;20382;-82
2021/06/11 04:50:45;;;;;;;7.93;5.78;;;18.70;77.50;;;;;;2094200;28;20070;-82
2021/06/11 04:51:46;;;;;;;7.88;5.63;;;18.70;77.40;;;;;;2093396;28;20093;-83
2021/06/11 04:52:46;;;;;;;7.63;5.25;;;18.80;77.40;;;;;;2094110;28;20025;-82
2021/06/11 04:53:47;;;;;;;7.93;5.63;;;18.80;77.40;;;;;;2092474;28;20024;-82
2021/06/11 04:54:48;;;;;;;7.75;5.82;;;18.90;77.40;;;;;;2102978;28;20458;-82
2021/06/11 04:55:49;;;;;;;7.15;5.63;;;18.90;77.20;;;;;;2094262;28;20509;-82
2021/06/11 04:56:49;;;;;;;7.47;5.88;;;19.00;77.10;;;;;;2104292;28;20024;-83
2021/06/11 04:57:51;;;;;;;7.90;6.18;;;19.00;77.60;;;;;;2104537;28;20029;-82
2021/06/11 04:58:54;;;;;;;7.07;5.55;;;19.10;76.90;;;;;;2087997;28;20088;-82
2021/06/11 04:59:55;;;;;;;7.60;5.70;;;19.20;76.80;;;;;;2096644;28;20025;-82
2021/06/11 05:00:55;;;;;;;8.07;5.88;;;19.20;76.60;;;;;;2094088;28;20032;-83
2021/06/11 05:01:56;;;;;;;7.85;5.75;;;19.30;77.10;;;;;;2082514;28;20033;-82
2021/06/11 05:02:56;;;;;;;8.85;5.80;;;19.30;76.30;;;;;;2087822;28;20033;-82
2021/06/11 05:03:57;;;;;;;7.63;5.63;;;19.40;76.80;;;;;;2085746;28;20132;-82
2021/06/11 05:04:58;;;;;;;7.80;5.90;;;19.40;76.10;;;;;;2084570;28;20033;-82
2021/06/11 05:06:00;;;;;;;6.88;5.80;;;19.40;75.90;;;;;;2088672;28;20024;-82
2021/06/11 05:07:01;;;;;;;6.63;5.38;;;19.50;75.80;;;;;;2096028;28;20155;-82
2021/06/11 05:08:02;;;;;;;7.57;5.85;;;19.50;75.80;;;;;;2092140;28;20422;-82
2021/06/11 05:09:03;;;;;;;7.22;5.60;;;19.60;75.70;;;;;;2089677;28;20035;-83
2021/06/11 05:10:05;;;;;;;7.18;5.45;;;19.60;75.60;;;;;;2081287;28;20076;-82
2021/06/11 05:11:06;;;;;;;6.78;5.53;;;19.70;75.50;;;;;;2085173;28;22363;-82
2021/06/11 05:12:07;;;;;;;8.23;5.28;;;19.80;75.40;;;;;;2082819;28;20033;-81
2021/06/11 05:13:07;;;;;;;7.18;5.32;;;19.80;75.90;;;;;;2094264;28;20402;-83
2021/06/11 05:14:08;;;;;;;7.38;5.80;;;19.80;75.10;;;;;;2088301;28;20044;-82
2021/06/11 05:15:09;;;;;;;6.78;5.20;;;19.90;75.10;;;;;;2073026;28;20050;-82
2021/06/11 05:16:10;;;;;;;6.85;5.32;;;19.90;75.00;;;;;;2087308;28;20045;-82
2021/06/11 05:17:11;;;;;;;6.80;5.40;;;20.00;75.00;;;;;;2097793;28;20474;-83
2021/06/11 05:18:11;;;;;;;7.50;5.50;;;20.00;74.90;;;;;;2094356;28;20048;-82
2021/06/11 05:19:12;;;;;;;7.60;5.93;;;20.00;74.80;;;;;;2091948;28;20502;-83
2021/06/11 05:20:14;;;;;;;6.78;5.10;;;20.10;74.80;;;;;;2085421;28;20482;-82
2021/06/11 05:21:14;;;;;;;6.82;5.20;;;20.10;74.70;;;;;;2094569;28;20398;-82
2021/06/11 05:22:15;;;;;;;7.10;5.10;;;20.10;74.60;;;;;;2093832;28;20115;-83
2021/06/11 05:23:17;;;;;;;7.28;5.60;;;20.20;74.60;;;;;;2093477;28;20020;-83
2021/06/11 05:24:18;;;;;;;6.47;5.28;;;20.20;74.50;;;;;;2090716;28;20410;-82
2021/06/11 05:25:19;;;;;;;8.15;5.90;;;20.30;74.50;;;;;;2089420;28;20021;-83
2021/06/11 05:26:19;;;;;;;8.65;5.70;;;20.30;74.30;;;;;;2085988;28;20030;-82
2021/06/11 05:27:20;;;;;;;7.28;5.50;;;20.40;74.20;;;;;;2072906;28;20094;-83
2021/06/11 05:28:21;;;;;;;7.70;5.80;;;20.40;74.20;;;;;;2077873;28;20045;-83
2021/06/11 05:29:22;;;;;;;8.35;5.70;;;20.40;74.20;;;;;;2094250;28;20410;-82
2021/06/11 05:30:25;;;;;;;7.25;5.70;;;20.40;74.20;;;;;;2091662;28;20111;-82